Time;durP1;ratioP1;P1;durP2;ratioP2;P2;SDS_P1;SDS_P2;PMS_P1;PMS_P2;Temp;Humidity;BMP_temperature;BMP_pressure;BME280_temperature;BME280_humidity;BME280_pressure;Samples;Min_cycle;Max_cycle;Signal;HPM_P1;HPM_P2
2022/09/10 00:01:30;;;;;;;0.47;0.30;;;;;;;;;;7393984;19;20014;-77
2022/09/10 00:03:55;;;;;;;0.20;0.20;;;;;;;;;;7396256;19;20372;-77
2022/09/10 00:06:24;;;;;;;1.55;0.45;;;;;;;;;;7396561;19;20023;-77
2022/09/10 00:08:51;;;;;;;0.55;0.40;;;;;;;;;;7393759;19;20010;-77
2022/09/10 00:11:19;;;;;;;1.65;0.10;;;;;;;;;;7393950;19;20010;-77
2022/09/10 00:13:45;;;;;;;3.78;0.40;;;;;;;;;;7389601;19;20035;-77
2022/09/10 00:16:13;;;;;;;1.17;0.30;;;;;;;;;;7394771;19;20030;-77
2022/09/10 00:18:40;;;;;;;0.30;0.20;;;;;;;;;;7390792;19;20109;-77
2022/09/10 00:21:09;;;;;;;2.38;0.43;;;;;;;;;;7394272;19;20010;-77
2022/09/10 00:23:35;;;;;;;1.00;0.40;;;;;;;;;;7393659;19;19999;-78
2022/09/10 00:26:13;;;;;;;0.25;0.17;;;;;;;;;;7393280;19;20019;-77
2022/09/10 00:28:40;;;;;;;1.42;0.32;;;;;;;;;;7394131;19;20014;-77
2022/09/10 00:31:05;;;;;;;0.60;0.38;;;;;;;;;;7393004;19;20014;-77
2022/09/10 00:33:30;;;;;;;0.25;0.25;;;;;;;;;;7390794;19;20368;-77
2022/09/10 00:35:58;;;;;;;1.40;0.35;;;;;;;;;;7392663;19;20413;-77
2022/09/10 00:38:24;;;;;;;0.90;0.30;;;;;;;;;;7390320;19;20013;-77
2022/09/10 00:40:50;;;;;;;0.52;0.40;;;;;;;;;;7390710;19;20025;-77
2022/09/10 00:43:19;;;;;;;0.68;0.20;;;;;;;;;;7392865;19;20324;-77
2022/09/10 00:45:47;;;;;;;0.25;0.10;;;;;;;;;;7398148;19;20459;-77
2022/09/10 00:48:17;;;;;;;1.77;0.30;;;;;;;;;;7399923;19;20013;-78
2022/09/10 00:50:45;;;;;;;0.25;0.13;;;;;;;;;;7397501;19;20078;-78
2022/09/10 00:53:14;;;;;;;1.95;0.20;;;;;;;;;;7395451;19;20045;-77
2022/09/10 00:55:42;;;;;;;1.15;0.20;;;;;;;;;;7394617;19;20040;-78
2022/09/10 00:58:10;;;;;;;1.30;0.28;;;;;;;;;;7397883;19;20019;-77
2022/09/10 01:00:36;;;;;;;0.50;0.20;;;;;;;;;;7394935;19;20014;-78
2022/09/10 01:03:06;;;;;;;0.65;0.38;;;;;;;;;;7391024;19;20010;-78
2022/09/10 01:05:33;;;;;;;1.02;0.30;;;;;;;;;;7394058;19;20011;-78
2022/09/10 01:07:58;;;;;;;0.10;0.10;;;;;;;;;;7396791;19;20014;-78
2022/09/10 01:10:30;;;;;;;0.55;0.32;;;;;;;;;;7395217;19;20411;-78
2022/09/10 01:13:32;;;;;;;0.38;0.10;;;;;;;;;;7395719;19;20126;-77
2022/09/10 01:16:09;;;;;;;0.38;0.20;;;;;;;;;;7399403;19;19998;-78
2022/09/10 01:18:58;;;;;;;0.20;0.10;;;;;;;;;;7397914;19;20030;-78
2022/09/10 01:21:39;;;;;;;2.42;0.32;;;;;;;;;;7396099;19;20104;-77
2022/09/10 01:24:34;;;;;;;0.50;0.05;;;;;;;;;;7396806;19;20081;-78
2022/09/10 01:27:00;;;;;;;0.20;0.20;;;;;;;;;;7399238;19;20017;-77
2022/09/10 01:29:33;;;;;;;0.15;0.10;;;;;;;;;;7395237;19;20336;-77
2022/09/10 01:32:14;;;;;;;0.98;0.43;;;;;;;;;;7396692;19;20040;-78
2022/09/10 01:34:55;;;;;;;1.27;0.22;;;;;;;;;;7392082;19;20074;-78
2022/09/10 01:37:27;;;;;;;0.32;0.10;;;;;;;;;;7397839;19;20022;-77
2022/09/10 01:39:54;;;;;;;0.40;0.30;;;;;;;;;;7389111;19;20023;-77
2022/09/10 01:42:24;;;;;;;0.50;0.08;;;;;;;;;;7397800;19;20467;-77
2022/09/10 01:44:51;;;;;;;1.67;0.20;;;;;;;;;;7398354;19;20038;-77
2022/09/10 01:47:25;;;;;;;0.22;0.22;;;;;;;;;;7396079;19;20813;-77
2022/09/10 01:50:20;;;;;;;0.40;0.15;;;;;;;;;;7392278;19;20023;-77
2022/09/10 01:52:48;;;;;;;3.72;0.30;;;;;;;;;;7396091;19;20002;-77
2022/09/10 01:55:42;;;;;;;0.10;0.10;;;;;;;;;;7407003;19;20019;-77
2022/09/10 01:58:24;;;;;;;2.92;0.17;;;;;;;;;;7408459;19;20006;-77
2022/09/10 02:01:07;;;;;;;0.10;0.10;;;;;;;;;;7409123;19;20002;-77
2022/09/10 02:03:35;;;;;;;0.60;0.20;;;;;;;;;;7408005;19;20328;-77
2022/09/10 02:06:01;;;;;;;1.58;0.10;;;;;;;;;;7408729;19;20171;-77
2022/09/10 02:08:31;;;;;;;0.20;0.20;;;;;;;;;;7408878;19;20002;-77
2022/09/10 02:10:59;;;;;;;0.22;0.00;;;;;;;;;;7410972;19;20046;-77
2022/09/10 02:13:27;;;;;;;1.20;0.20;;;;;;;;;;7408113;19;20551;-77
2022/09/10 02:15:53;;;;;;;0.45;0.10;;;;;;;;;;7409861;19;19999;-77
2022/09/10 02:18:22;;;;;;;0.45;0.10;;;;;;;;;;7410091;19;20074;-77
2022/09/10 02:20:50;;;;;;;0.15;0.08;;;;;;;;;;7410534;19;20006;-77
2022/09/10 02:23:18;;;;;;;0.15;0.10;;;;;;;;;;7410595;19;20010;-77
2022/09/10 02:25:44;;;;;;;0.30;0.10;;;;;;;;;;7412071;19;20013;-77
2022/09/10 02:28:10;;;;;;;0.75;0.20;;;;;;;;;;7401129;19;20022;-77
2022/09/10 02:30:36;;;;;;;1.10;0.13;;;;;;;;;;7390043;19;20003;-77
2022/09/10 02:33:02;;;;;;;0.20;0.20;;;;;;;;;;7388670;19;20035;-77
2022/09/10 02:35:27;;;;;;;0.25;0.10;;;;;;;;;;7390537;19;19998;-77
2022/09/10 02:37:53;;;;;;;0.63;0.10;;;;;;;;;;7389525;19;20018;-77
2022/09/10 02:40:18;;;;;;;0.38;0.20;;;;;;;;;;7391177;19;20014;-77
2022/09/10 02:42:45;;;;;;;1.00;0.15;;;;;;;;;;7389532;19;20094;-77
2022/09/10 02:45:12;;;;;;;0.82;0.50;;;;;;;;;;7391326;19;20002;-77
2022/09/10 02:47:37;;;;;;;0.20;0.20;;;;;;;;;;7388684;19;20476;-77
2022/09/10 02:50:03;;;;;;;0.68;0.30;;;;;;;;;;7387007;19;20107;-78
2022/09/10 02:52:28;;;;;;;0.55;0.10;;;;;;;;;;7386253;19;20476;-77
2022/09/10 02:54:53;;;;;;;0.28;0.10;;;;;;;;;;7390932;19;20048;-77
2022/09/10 02:57:18;;;;;;;0.22;0.17;;;;;;;;;;7391131;19;20013;-77
2022/09/10 02:59:44;;;;;;;1.02;0.30;;;;;;;;;;7389829;19;20016;-77
2022/09/10 03:02:09;;;;;;;0.10;0.10;;;;;;;;;;7382760;19;20460;-77
2022/09/10 03:04:34;;;;;;;0.15;0.15;;;;;;;;;;7387759;19;20006;-77
2022/09/10 03:07:00;;;;;;;0.30;0.10;;;;;;;;;;7389910;19;20101;-77
2022/09/10 03:09:27;;;;;;;0.60;0.40;;;;;;;;;;7389145;19;20006;-77
2022/09/10 03:11:53;;;;;;;0.73;0.63;;;;;;;;;;7392654;19;20010;-77
2022/09/10 03:14:21;;;;;;;1.70;0.93;;;;;;;;;;7391377;19;20035;-77
2022/09/10 03:16:47;;;;;;;3.55;0.80;;;;;;;;;;7388096;19;20031;-77
2022/09/10 03:19:14;;;;;;;0.40;0.40;;;;;;;;;;7386364;19;20845;-77
2022/09/10 03:21:40;;;;;;;1.90;0.25;;;;;;;;;;7389059;19;20010;-77
2022/09/10 03:24:06;;;;;;;1.30;0.50;;;;;;;;;;7390880;19;20046;-77
2022/09/10 03:26:31;;;;;;;1.00;0.10;;;;;;;;;;7392139;19;20046;-78
2022/09/10 03:28:57;;;;;;;0.85;0.20;;;;;;;;;;7389035;19;20040;-77
2022/09/10 03:31:22;;;;;;;0.30;0.20;;;;;;;;;;7390227;19;19999;-77
2022/09/10 03:33:48;;;;;;;0.28;0.20;;;;;;;;;;7389684;19;20007;-77
2022/09/10 03:36:13;;;;;;;0.30;0.20;;;;;;;;;;7392071;19;20122;-77
2022/09/10 03:38:40;;;;;;;0.20;0.20;;;;;;;;;;7389833;19;20114;-77
2022/09/10 03:41:05;;;;;;;0.25;0.20;;;;;;;;;;7391687;19;19999;-77
2022/09/10 03:43:30;;;;;;;1.98;0.52;;;;;;;;;;7391524;19;20058;-77
2022/09/10 03:45:56;;;;;;;1.23;0.32;;;;;;;;;;7392832;19;20496;-77
2022/09/10 03:48:22;;;;;;;0.90;0.20;;;;;;;;;;7387635;19;20007;-77
2022/09/10 03:50:49;;;;;;;0.20;0.13;;;;;;;;;;7388768;19;20010;-77
2022/09/10 03:53:16;;;;;;;2.40;0.28;;;;;;;;;;7390584;19;20007;-77
2022/09/10 03:55:43;;;;;;;0.20;0.20;;;;;;;;;;7390692;19;20007;-78
2022/09/10 03:58:08;;;;;;;0.40;0.40;;;;;;;;;;7389312;19;20006;-77
2022/09/10 04:00:34;;;;;;;0.50;0.50;;;;;;;;;;7389518;19;20007;-77
2022/09/10 04:03:00;;;;;;;0.32;0.30;;;;;;;;;;7396222;19;20023;-77
2022/09/10 04:05:27;;;;;;;0.52;0.38;;;;;;;;;;7400700;19;20018;-78
2022/09/10 04:07:53;;;;;;;0.88;0.50;;;;;;;;;;7398504;19;20011;-77
2022/09/10 04:10:20;;;;;;;4.45;0.88;;;;;;;;;;7399143;19;20300;-77
2022/09/10 04:12:47;;;;;;;1.13;0.60;;;;;;;;;;7399547;19;20126;-78
2022/09/10 04:15:13;;;;;;;0.43;0.43;;;;;;;;;;7397070;19;20074;-78
2022/09/10 04:17:38;;;;;;;1.20;0.55;;;;;;;;;;7397042;19;20317;-77
2022/09/10 04:20:04;;;;;;;0.40;0.40;;;;;;;;;;7390015;19;20066;-77
2022/09/10 04:22:29;;;;;;;0.38;0.38;;;;;;;;;;7393131;19;20317;-77
2022/09/10 04:24:54;;;;;;;0.45;0.30;;;;;;;;;;7398233;19;20069;-77
2022/09/10 04:27:21;;;;;;;0.73;0.20;;;;;;;;;;7393991;19;20024;-77
2022/09/10 04:29:46;;;;;;;0.28;0.28;;;;;;;;;;7390913;19;20014;-77
2022/09/10 04:32:12;;;;;;;0.25;0.25;;;;;;;;;;7392318;19;20010;-77
2022/09/10 04:34:37;;;;;;;1.65;0.47;;;;;;;;;;7391672;19;19999;-77
2022/09/10 04:37:02;;;;;;;0.82;0.30;;;;;;;;;;7396173;19;20010;-77
2022/09/10 04:39:28;;;;;;;0.30;0.30;;;;;;;;;;7391548;19;20008;-78
2022/09/10 04:41:53;;;;;;;0.30;0.28;;;;;;;;;;7394121;19;20536;-77
2022/09/10 04:44:19;;;;;;;2.20;0.30;;;;;;;;;;7395043;19;20015;-77
2022/09/10 04:46:46;;;;;;;0.50;0.20;;;;;;;;;;7388417;19;20017;-77
2022/09/10 04:49:12;;;;;;;0.30;0.20;;;;;;;;;;7395558;19;20319;-77
2022/09/10 04:51:37;;;;;;;0.77;0.22;;;;;;;;;;7394931;19;20011;-78
2022/09/10 04:54:02;;;;;;;0.30;0.20;;;;;;;;;;7399058;19;20038;-80
2022/09/10 04:56:28;;;;;;;0.50;0.30;;;;;;;;;;7394875;19;20479;-77
2022/09/10 04:58:53;;;;;;;1.80;0.57;;;;;;;;;;7389492;19;20013;-78
2022/09/10 05:01:18;;;;;;;1.95;0.28;;;;;;;;;;7394941;19;20026;-78
2022/09/10 05:03:43;;;;;;;0.55;0.28;;;;;;;;;;7388464;19;20010;-78
2022/09/10 05:06:09;;;;;;;0.20;0.20;;;;;;;;;;7396900;19;20039;-78
2022/09/10 05:08:35;;;;;;;0.85;0.17;;;;;;;;;;7398911;19;20036;-78
2022/09/10 05:11:01;;;;;;;1.08;0.20;;;;;;;;;;7395801;19;20014;-78
2022/09/10 05:13:30;;;;;;;0.20;0.20;;;;;;;;;;7395210;19;20015;-78
2022/09/10 05:15:58;;;;;;;5.82;0.30;;;;;;;;;;7391990;19;20013;-78
2022/09/10 05:18:27;;;;;;;1.10;0.45;;;;;;;;;;7389112;19;20089;-77
2022/09/10 05:20:52;;;;;;;1.50;0.40;;;;;;;;;;7401974;19;20014;-77
2022/09/10 05:23:18;;;;;;;0.43;0.20;;;;;;;;;;7400095;19;20009;-77
2022/09/10 05:25:44;;;;;;;0.55;0.38;;;;;;;;;;7399756;19;20436;-77
2022/09/10 05:28:10;;;;;;;0.30;0.20;;;;;;;;;;7388519;19;20005;-77
2022/09/10 05:30:35;;;;;;;0.10;0.10;;;;;;;;;;7390242;19;20035;-77
2022/09/10 05:33:01;;;;;;;0.40;0.10;;;;;;;;;;7396491;19;20320;-76
2022/09/10 05:35:27;;;;;;;0.70;0.30;;;;;;;;;;7392341;19;20424;-77
2022/09/10 05:37:55;;;;;;;0.68;0.20;;;;;;;;;;7395661;19;20446;-77
2022/09/10 05:40:21;;;;;;;1.77;0.68;;;;;;;;;;7396971;19;20006;-77
2022/09/10 05:42:46;;;;;;;0.15;0.10;;;;;;;;;;7391960;19;20014;-77
2022/09/10 05:45:12;;;;;;;0.10;0.10;;;;;;;;;;7393178;19;20039;-76
2022/09/10 05:47:38;;;;;;;0.60;0.20;;;;;;;;;;7392515;19;20003;-77
2022/09/10 05:50:04;;;;;;;1.55;0.10;;;;;;;;;;7393997;19;20086;-77
2022/09/10 05:52:31;;;;;;;0.47;0.40;;;;;;;;;;7389997;19;20007;-76
2022/09/10 05:54:57;;;;;;;1.63;0.20;;;;;;;;;;7395123;19;20006;-77
2022/09/10 05:57:22;;;;;;;0.60;0.40;;;;;;;;;;7393767;19;20009;-77
2022/09/10 05:59:47;;;;;;;2.55;0.50;;;;;;;;;;7396188;19;20003;-77
2022/09/10 06:02:16;;;;;;;0.55;0.20;;;;;;;;;;7388964;19;20006;-77
2022/09/10 06:04:41;;;;;;;0.57;0.20;;;;;;;;;;7396152;19;20007;-76
2022/09/10 06:07:07;;;;;;;1.88;0.20;;;;;;;;;;7391924;19;20018;-77
2022/09/10 06:09:33;;;;;;;0.98;0.28;;;;;;;;;;7392107;19;20101;-77
2022/09/10 06:11:58;;;;;;;0.40;0.17;;;;;;;;;;7393586;19;20007;-78
2022/09/10 06:14:23;;;;;;;0.45;0.20;;;;;;;;;;7347393;19;20074;-76
2022/09/10 06:16:51;;;;;;;0.20;0.20;;;;;;;;;;7393393;19;20392;-78
2022/09/10 06:19:18;;;;;;;1.30;0.50;;;;;;;;;;7392892;19;20003;-78
2022/09/10 06:21:45;;;;;;;0.40;0.30;;;;;;;;;;7397092;19;20045;-77
2022/09/10 06:24:11;;;;;;;0.30;0.30;;;;;;;;;;7397403;19;20002;-78
2022/09/10 06:26:36;;;;;;;1.15;0.30;;;;;;;;;;7397267;19;20088;-77
2022/09/10 06:29:02;;;;;;;3.38;0.57;;;;;;;;;;7397342;19;20002;-77
2022/09/10 06:31:28;;;;;;;0.45;0.30;;;;;;;;;;7394767;19;20015;-78
2022/09/10 06:33:53;;;;;;;0.30;0.30;;;;;;;;;;7397772;19;20075;-78
2022/09/10 06:36:19;;;;;;;1.88;0.47;;;;;;;;;;7397635;19;20002;-78
2022/09/10 06:38:44;;;;;;;0.90;0.60;;;;;;;;;;7395287;19;20014;-78
2022/09/10 06:41:12;;;;;;;0.55;0.30;;;;;;;;;;7397071;19;20041;-77
2022/09/10 06:43:40;;;;;;;1.30;0.47;;;;;;;;;;7397867;19;19999;-78
2022/09/10 06:46:12;;;;;;;0.63;0.28;;;;;;;;;;7391725;19;20448;-78
2022/09/10 06:48:39;;;;;;;0.50;0.32;;;;;;;;;;7398225;19;20018;-78
2022/09/10 06:51:07;;;;;;;0.30;0.30;;;;;;;;;;7397002;19;20086;-78
2022/09/10 06:53:32;;;;;;;0.32;0.30;;;;;;;;;;7399804;19;20043;-78
2022/09/10 06:55:59;;;;;;;1.05;0.30;;;;;;;;;;7397285;19;20013;-78
2022/09/10 06:58:24;;;;;;;0.25;0.22;;;;;;;;;;7398334;19;20006;-78
2022/09/10 07:00:50;;;;;;;1.50;0.68;;;;;;;;;;7401122;19;20026;-77
2022/09/10 07:03:18;;;;;;;2.95;0.77;;;;;;;;;;7394100;19;20013;-78
2022/09/10 07:05:44;;;;;;;1.15;0.40;;;;;;;;;;7397928;19;20018;-78
2022/09/10 07:08:11;;;;;;;0.13;0.13;;;;;;;;;;7398644;19;20345;-78
2022/09/10 07:10:37;;;;;;;0.75;0.38;;;;;;;;;;7395301;19;20002;-78
2022/09/10 07:13:03;;;;;;;0.32;0.32;;;;;;;;;;7397219;19;21978;-78
2022/09/10 07:15:28;;;;;;;0.22;0.22;;;;;;;;;;7394759;19;20074;-78
2022/09/10 07:17:54;;;;;;;2.03;0.35;;;;;;;;;;7399133;19;20006;-77
2022/09/10 07:20:22;;;;;;;0.30;0.20;;;;;;;;;;7399476;19;20017;-77
2022/09/10 07:22:50;;;;;;;0.63;0.40;;;;;;;;;;7396543;19;20409;-78
2022/09/10 07:25:16;;;;;;;4.05;0.52;;;;;;;;;;7395239;19;20298;-76
2022/09/10 07:27:41;;;;;;;0.93;0.40;;;;;;;;;;7393807;19;20003;-77
2022/09/10 07:30:07;;;;;;;1.17;0.35;;;;;;;;;;7399159;19;20082;-78
2022/09/10 07:32:33;;;;;;;0.38;0.30;;;;;;;;;;7396033;19;20014;-77
2022/09/10 07:34:59;;;;;;;0.40;0.40;;;;;;;;;;7393726;19;20044;-77
2022/09/10 07:37:25;;;;;;;0.20;0.20;;;;;;;;;;7402757;19;20006;-77
2022/09/10 07:39:50;;;;;;;0.20;0.15;;;;;;;;;;7402932;19;20009;-78
2022/09/10 07:42:15;;;;;;;0.20;0.15;;;;;;;;;;7402624;19;20013;-78
2022/09/10 07:44:41;;;;;;;1.40;0.22;;;;;;;;;;7409429;19;20039;-78
2022/09/10 07:47:06;;;;;;;0.95;0.30;;;;;;;;;;7402101;19;20002;-78
2022/09/10 07:49:33;;;;;;;0.40;0.32;;;;;;;;;;7403928;19;20006;-78
2022/09/10 07:51:59;;;;;;;0.98;0.73;;;;;;;;;;7407299;19;20021;-78
2022/09/10 07:54:24;;;;;;;0.10;0.10;;;;;;;;;;7406141;19;20381;-76
2022/09/10 07:56:50;;;;;;;0.20;0.10;;;;;;;;;;7393363;19;20007;-76
2022/09/10 07:59:15;;;;;;;0.80;0.20;;;;;;;;;;7392896;19;20054;-76
2022/09/10 08:01:41;;;;;;;0.32;0.30;;;;;;;;;;7387630;19;20014;-78
2022/09/10 08:04:06;;;;;;;0.65;0.30;;;;;;;;;;7392821;19;20441;-76
2022/09/10 08:06:32;;;;;;;0.60;0.20;;;;;;;;;;7391363;19;20010;-77
2022/09/10 08:08:58;;;;;;;0.05;0.05;;;;;;;;;;7389465;19;20006;-76
2022/09/10 08:11:24;;;;;;;0.20;0.20;;;;;;;;;;7390232;19;20432;-76
2022/09/10 08:13:52;;;;;;;0.50;0.20;;;;;;;;;;7389658;19;20026;-76
2022/09/10 08:16:20;;;;;;;0.47;0.22;;;;;;;;;;7394772;19;20007;-76
2022/09/10 08:18:47;;;;;;;0.10;0.10;;;;;;;;;;7395716;19;20018;-77
2022/09/10 08:21:12;;;;;;;0.77;0.20;;;;;;;;;;7392476;19;20086;-76
2022/09/10 08:23:38;;;;;;;0.32;0.32;;;;;;;;;;7393662;19;20428;-76
2022/09/10 08:26:05;;;;;;;1.13;0.40;;;;;;;;;;7392293;19;20017;-76
2022/09/10 08:28:31;;;;;;;1.60;0.50;;;;;;;;;;7392506;19;20027;-77
2022/09/10 08:31:06;;;;;;;0.70;0.32;;;;;;;;;;7397762;19;20463;-77
2022/09/10 08:33:33;;;;;;;1.10;0.30;;;;;;;;;;7393181;19;20015;-77
2022/09/10 08:36:00;;;;;;;1.77;0.30;;;;;;;;;;7392004;19;20343;-77
2022/09/10 08:38:34;;;;;;;0.32;0.20;;;;;;;;;;7391555;19;20018;-76
2022/09/10 08:41:01;;;;;;;1.52;0.20;;;;;;;;;;7387447;19;20018;-77
2022/09/10 08:43:42;;;;;;;0.47;0.30;;;;;;;;;;7391020;19;20002;-76
2022/09/10 08:46:24;;;;;;;0.15;0.10;;;;;;;;;;7391079;19;20017;-77
2022/09/10 08:49:03;;;;;;;1.73;0.47;;;;;;;;;;7389529;19;20018;-76
2022/09/10 08:51:39;;;;;;;0.43;0.22;;;;;;;;;;7389618;19;20007;-75
2022/09/10 08:54:12;;;;;;;0.65;0.20;;;;;;;;;;7385859;19;20130;-77
2022/09/10 08:56:40;;;;;;;0.20;0.20;;;;;;;;;;7389617;19;20017;-75
2022/09/10 08:59:16;;;;;;;1.05;0.30;;;;;;;;;;7391751;19;20484;-75
2022/09/10 09:02:11;;;;;;;1.30;0.50;;;;;;;;;;7388743;19;20018;-74
2022/09/10 09:04:44;;;;;;;0.40;0.22;;;;;;;;;;7390310;19;20356;-75
2022/09/10 09:07:15;;;;;;;1.65;0.22;;;;;;;;;;7395280;19;20018;-74
2022/09/10 09:09:41;;;;;;;1.95;0.30;;;;;;;;;;7393123;19;20010;-74
2022/09/10 09:12:19;;;;;;;0.80;0.40;;;;;;;;;;7390429;19;20317;-75
2022/09/10 09:15:24;;;;;;;0.20;0.20;;;;;;;;;;7391733;19;20014;-75
2022/09/10 09:18:16;;;;;;;0.20;0.20;;;;;;;;;;7391577;19;20094;-75
2022/09/10 09:20:49;;;;;;;1.08;0.35;;;;;;;;;;7389172;19;20014;-75
2022/09/10 09:23:44;;;;;;;0.65;0.20;;;;;;;;;;7390998;19;20051;-75
2022/09/10 09:26:12;;;;;;;2.05;0.30;;;;;;;;;;7387099;19;20523;-75
2022/09/10 09:28:55;;;;;;;0.73;0.28;;;;;;;;;;7385731;19;20090;-75
2022/09/10 09:31:49;;;;;;;0.30;0.13;;;;;;;;;;7393389;19;20002;-75
2022/09/10 09:34:26;;;;;;;0.80;0.22;;;;;;;;;;7391019;19;20010;-75
2022/09/10 09:36:55;;;;;;;0.20;0.20;;;;;;;;;;7393438;19;20172;-75
2022/09/10 09:39:34;;;;;;;0.75;0.10;;;;;;;;;;7390350;19;20006;-76
2022/09/10 09:42:05;;;;;;;3.70;0.35;;;;;;;;;;7391617;19;20011;-74
2022/09/10 09:44:39;;;;;;;0.80;0.10;;;;;;;;;;7390059;19;20017;-74
2022/09/10 09:47:07;;;;;;;0.47;0.10;;;;;;;;;;7388328;19;20496;-75
2022/09/10 09:49:33;;;;;;;1.30;0.20;;;;;;;;;;7389806;19;20028;-74
2022/09/10 09:52:01;;;;;;;0.55;0.20;;;;;;;;;;7392563;19;20011;-74
2022/09/10 09:54:28;;;;;;;3.63;0.32;;;;;;;;;;7389361;19;20013;-75
2022/09/10 09:56:57;;;;;;;0.82;0.13;;;;;;;;;;7393334;19;20010;-75
2022/09/10 09:59:33;;;;;;;0.30;0.10;;;;;;;;;;7386640;19;20131;-75
2022/09/10 10:02:22;;;;;;;0.10;0.10;;;;;;;;;;7386267;19;20012;-75
2022/09/10 10:05:22;;;;;;;0.60;0.20;;;;;;;;;;7390385;19;20016;-75
2022/09/10 10:07:47;;;;;;;0.15;0.13;;;;;;;;;;7387612;19;20010;-75
2022/09/10 10:10:23;;;;;;;0.00;0.00;;;;;;;;;;7387946;19;20228;-75
2022/09/10 10:12:50;;;;;;;0.68;0.10;;;;;;;;;;7387895;19;20059;-75
2022/09/10 10:15:40;;;;;;;1.00;0.30;;;;;;;;;;7391184;19;20006;-75
2022/09/10 10:18:21;;;;;;;1.15;0.30;;;;;;;;;;7386350;19;20015;-74
2022/09/10 10:21:09;;;;;;;1.70;0.25;;;;;;;;;;7386540;19;20006;-75
2022/09/10 10:23:37;;;;;;;0.82;0.30;;;;;;;;;;7387250;19;20396;-74
2022/09/10 10:26:20;;;;;;;1.35;0.40;;;;;;;;;;7388994;19;20049;-75
2022/09/10 10:28:48;;;;;;;0.22;0.20;;;;;;;;;;7386571;19;20022;-75
2022/09/10 10:31:15;;;;;;;0.57;0.30;;;;;;;;;;7389420;19;20999;-75
2022/09/10 10:34:13;;;;;;;2.72;0.10;;;;;;;;;;7387649;19;20018;-75
2022/09/10 10:36:52;;;;;;;0.32;0.17;;;;;;;;;;7387161;19;20002;-76
2022/09/10 10:39:26;;;;;;;0.77;0.20;;;;;;;;;;7388692;19;20008;-75
2022/09/10 10:42:19;;;;;;;0.38;0.10;;;;;;;;;;7387159;19;20007;-76
2022/09/10 10:45:01;;;;;;;0.50;0.25;;;;;;;;;;7387858;19;20006;-76
2022/09/10 10:47:32;;;;;;;0.73;0.10;;;;;;;;;;7389909;19;20029;-76
2022/09/10 10:50:15;;;;;;;0.65;0.17;;;;;;;;;;7384908;19;20011;-75
2022/09/10 10:52:56;;;;;;;0.10;0.10;;;;;;;;;;7387305;19;20479;-76
2022/09/10 10:55:26;;;;;;;2.92;0.13;;;;;;;;;;7390427;19;20329;-76
2022/09/10 10:58:04;;;;;;;0.73;0.20;;;;;;;;;;7390882;19;20135;-75
2022/09/10 11:00:40;;;;;;;0.10;0.10;;;;;;;;;;7388319;19;20404;-76
2022/09/10 11:03:21;;;;;;;0.98;0.35;;;;;;;;;;7388535;19;20029;-75
2022/09/10 11:06:09;;;;;;;0.73;0.20;;;;;;;;;;7391759;19;20022;-76
2022/09/10 11:08:47;;;;;;;0.20;0.00;;;;;;;;;;7384924;19;20020;-75
2022/09/10 11:11:17;;;;;;;0.90;0.30;;;;;;;;;;7394109;19;20141;-75
2022/09/10 11:13:57;;;;;;;0.98;0.35;;;;;;;;;;7394995;19;20070;-75
2022/09/10 11:16:33;;;;;;;0.47;0.20;;;;;;;;;;7398482;19;20052;-74
2022/09/10 11:19:24;;;;;;;1.70;0.15;;;;;;;;;;7395405;19;20010;-75
2022/09/10 11:22:03;;;;;;;0.25;0.10;;;;;;;;;;7393197;19;20006;-76
2022/09/10 11:24:40;;;;;;;0.40;0.30;;;;;;;;;;7396920;19;20013;-74
2022/09/10 11:27:11;;;;;;;0.75;0.30;;;;;;;;;;7393908;19;20006;-75
2022/09/10 11:29:50;;;;;;;2.60;0.35;;;;;;;;;;7392004;19;20014;-74
2022/09/10 11:32:34;;;;;;;0.00;0.00;;;;;;;;;;7396512;19;20049;-75
2022/09/10 11:35:25;;;;;;;0.13;0.10;;;;;;;;;;7389112;19;20014;-75
2022/09/10 11:38:28;;;;;;;0.20;0.05;;;;;;;;;;7396941;19;20081;-75
2022/09/10 11:41:21;;;;;;;0.60;0.40;;;;;;;;;;7395865;19;20036;-75
2022/09/10 11:44:13;;;;;;;1.55;0.30;;;;;;;;;;7397474;19;20384;-75
2022/09/10 11:46:46;;;;;;;0.57;0.20;;;;;;;;;;7393445;19;20445;-75
2022/09/10 11:49:19;;;;;;;0.47;0.15;;;;;;;;;;7394165;19;20385;-75
2022/09/10 11:51:45;;;;;;;0.30;0.10;;;;;;;;;;7397005;19;20317;-74
2022/09/10 11:54:17;;;;;;;2.55;0.30;;;;;;;;;;7393598;19;20349;-75
2022/09/10 11:57:02;;;;;;;1.13;0.32;;;;;;;;;;7392729;19;20006;-75
2022/09/10 11:59:41;;;;;;;0.65;0.20;;;;;;;;;;7392450;19;20026;-75
2022/09/10 12:02:43;;;;;;;0.10;0.10;;;;;;;;;;7392591;19;20035;-76
2022/09/10 12:05:41;;;;;;;1.83;0.30;;;;;;;;;;7396993;19;20014;-76
2022/09/10 12:08:09;;;;;;;1.92;0.50;;;;;;;;;;7394326;19;19999;-76
2022/09/10 12:11:12;;;;;;;2.75;0.30;;;;;;;;;;7395740;19;20014;-75
2022/09/10 12:13:38;;;;;;;0.85;0.20;;;;;;;;;;7393609;19;20022;-75
2022/09/10 12:16:17;;;;;;;0.20;0.20;;;;;;;;;;7395013;19;20022;-75
2022/09/10 12:18:46;;;;;;;1.00;0.20;;;;;;;;;;7394534;19;20031;-75
2022/09/10 12:21:40;;;;;;;1.35;0.38;;;;;;;;;;7396499;19;20432;-75
2022/09/10 12:24:24;;;;;;;0.95;0.40;;;;;;;;;;7394904;19;20460;-75
2022/09/10 12:26:51;;;;;;;1.10;0.28;;;;;;;;;;7393107;19;20018;-75
2022/09/10 12:29:36;;;;;;;1.48;0.20;;;;;;;;;;7393417;19;20472;-75
2022/09/10 12:32:24;;;;;;;0.55;0.38;;;;;;;;;;7384122;19;20029;-75
2022/09/10 12:35:29;;;;;;;1.85;0.50;;;;;;;;;;7394568;19;20522;-74
2022/09/10 12:38:32;;;;;;;3.50;0.52;;;;;;;;;;7397079;19;20022;-75
2022/09/10 12:40:58;;;;;;;0.65;0.35;;;;;;;;;;7391556;19;20262;-74
2022/09/10 12:43:38;;;;;;;0.35;0.20;;;;;;;;;;7395275;19;20484;-74
2022/09/10 12:46:13;;;;;;;1.40;0.30;;;;;;;;;;7394058;19;20118;-76
2022/09/10 12:48:43;;;;;;;2.17;0.20;;;;;;;;;;7391111;19;20039;-81
2022/09/10 12:51:22;;;;;;;0.50;0.22;;;;;;;;;;7397410;19;20014;-76
2022/09/10 12:54:25;;;;;;;0.88;0.25;;;;;;;;;;7398376;19;20031;-77
2022/09/10 12:57:02;;;;;;;0.20;0.20;;;;;;;;;;7391743;19;20027;-74
2022/09/10 12:59:51;;;;;;;1.45;0.43;;;;;;;;;;7395092;19;20013;-75
2022/09/10 13:02:39;;;;;;;0.20;0.20;;;;;;;;;;7386594;19;20010;-75
2022/09/10 13:05:28;;;;;;;0.85;0.30;;;;;;;;;;7390773;19;20006;-76
2022/09/10 13:08:26;;;;;;;0.73;0.30;;;;;;;;;;7382339;19;20035;-74
2022/09/10 13:10:56;;;;;;;1.05;0.30;;;;;;;;;;7391321;19;20461;-74
2022/09/10 13:13:45;;;;;;;0.45;0.22;;;;;;;;;;7388995;19;20010;-74
2022/09/10 13:16:25;;;;;;;0.28;0.20;;;;;;;;;;7387921;19;20007;-75
2022/09/10 13:18:51;;;;;;;1.05;0.30;;;;;;;;;;7386948;19;20395;-75
2022/09/10 13:21:23;;;;;;;0.55;0.10;;;;;;;;;;7388238;19;20007;-74
2022/09/10 13:23:52;;;;;;;0.43;0.25;;;;;;;;;;7388588;19;20017;-76
2022/09/10 13:26:37;;;;;;;0.47;0.20;;;;;;;;;;7392052;19;21178;-75
2022/09/10 13:29:37;;;;;;;0.20;0.20;;;;;;;;;;7394044;19;20003;-75
2022/09/10 13:32:25;;;;;;;0.73;0.20;;;;;;;;;;7388511;19;20092;-75
2022/09/10 13:35:22;;;;;;;0.80;0.30;;;;;;;;;;7390095;19;20018;-78
2022/09/10 13:38:37;;;;;;;0.77;0.25;;;;;;;;;;7394875;19;20025;-78
2022/09/10 13:41:35;;;;;;;1.90;0.40;;;;;;;;;;7400421;19;20014;-77
2022/09/10 13:44:19;;;;;;;0.25;0.10;;;;;;;;;;7395045;19;20014;-74
2022/09/10 13:46:49;;;;;;;0.45;0.00;;;;;;;;;;7394979;19;20019;-76
2022/09/10 13:49:32;;;;;;;0.32;0.20;;;;;;;;;;7392581;19;19990;-77
2022/09/10 13:52:00;;;;;;;0.15;0.15;;;;;;;;;;7390033;19;20023;-77
2022/09/10 13:54:33;;;;;;;0.00;0.00;;;;;;;;;;7396391;19;20010;-77
2022/09/10 13:57:03;;;;;;;0.63;0.30;;;;;;;;;;7393918;19;20070;-77
2022/09/10 14:02:04;;;;;;;;;;;;;;;;;;7349366;19;20033;-74
2022/09/10 14:04:36;;;;;;;1.13;0.40;;;;;;;;;;7384666;19;19918;-74
2022/09/10 14:07:15;;;;;;;1.23;0.20;;;;;;;;;;7391635;19;20431;-74
2022/09/10 14:09:51;;;;;;;0.65;0.13;;;;;;;;;;7389667;19;20469;-77
2022/09/10 14:12:22;;;;;;;1.23;0.30;;;;;;;;;;7392180;19;20011;-75
2022/09/10 14:14:53;;;;;;;0.52;0.15;;;;;;;;;;7393466;19;20550;-75
2022/09/10 14:17:24;;;;;;;0.63;0.30;;;;;;;;;;7392863;19;20003;-74
2022/09/10 14:20:13;;;;;;;0.63;0.20;;;;;;;;;;7393297;19;20062;-74
2022/09/10 14:22:38;;;;;;;0.32;0.32;;;;;;;;;;7389190;19;19994;-74
2022/09/10 14:25:04;;;;;;;1.30;0.73;;;;;;;;;;7391637;19;20339;-74
2022/09/10 14:27:37;;;;;;;0.82;0.52;;;;;;;;;;7390495;19;20002;-74
2022/09/10 14:30:25;;;;;;;0.88;0.45;;;;;;;;;;7390074;19;20002;-74
2022/09/10 14:32:51;;;;;;;0.43;0.43;;;;;;;;;;7385206;19;20014;-74
2022/09/10 14:35:35;;;;;;;1.20;0.60;;;;;;;;;;7390270;19;20027;-74
2022/09/10 14:40:36;;;;;;;;;;;;;;;;;;7366012;19;20007;-72
2022/09/10 14:43:15;;;;;;;0.30;0.30;;;;;;;;;;7392524;19;19934;-72
2022/09/10 14:45:45;;;;;;;1.48;0.50;;;;;;;;;;7388248;19;20007;-71
2022/09/10 14:48:37;;;;;;;1.10;0.43;;;;;;;;;;7388673;19;20479;-71
2022/09/10 14:51:21;;;;;;;4.72;1.58;;;;;;;;;;7388819;19;19994;-72
2022/09/10 14:53:55;;;;;;;1.00;0.90;;;;;;;;;;7392740;19;20026;-71
2022/09/10 14:56:23;;;;;;;0.88;0.73;;;;;;;;;;7389211;19;20014;-70
2022/09/10 14:58:59;;;;;;;0.30;0.30;;;;;;;;;;7390205;19;20462;-71
2022/09/10 15:01:25;;;;;;;0.70;0.50;;;;;;;;;;7388321;19;20001;-70
2022/09/10 15:03:50;;;;;;;0.70;0.70;;;;;;;;;;7391442;19;20173;-70
2022/09/10 15:06:17;;;;;;;0.98;0.77;;;;;;;;;;7388857;19;20101;-70
2022/09/10 15:08:43;;;;;;;0.85;0.40;;;;;;;;;;7389679;19;20031;-70
2022/09/10 15:11:20;;;;;;;0.40;0.30;;;;;;;;;;7387492;19;19998;-70
2022/09/10 15:13:47;;;;;;;0.30;0.30;;;;;;;;;;7390252;19;20471;-70
2022/09/10 15:16:13;;;;;;;0.50;0.20;;;;;;;;;;7391390;19;20088;-70
2022/09/10 15:18:39;;;;;;;1.20;0.65;;;;;;;;;;7391362;19;20003;-70